Time;durP1;ratioP1;P1;durP2;ratioP2;P2;SDS_P1;SDS_P2;PMS_P1;PMS_P2;Temp;Humidity;BMP_temperature;BMP_pressure;BME280_temperature;BME280_humidity;BME280_pressure;Samples;Min_cycle;Max_cycle;Signal;HPM_P1;HPM_P2
2023/03/21 00:01:43;;;;;;;;;;;;;;;;;;136740;1284;22730;-81
2023/03/21 00:04:45;;;;;;;;;;;;;;;;;;136707;1284;22240;-82
2023/03/21 00:07:48;;;;;;;;;;;;;;;;;;136701;1283;22204;-82
2023/03/21 00:10:50;;;;;;;;;;;;;;;;;;136724;1284;22294;-82
2023/03/21 00:13:57;;;;;;;;;;;;;;;;;;136696;1284;22282;-81
2023/03/21 00:16:59;;;;;;;;;;;;;;;;;;136679;1284;22548;-81
2023/03/21 00:20:04;;;;;;;;;;;;;;;;;;136704;1282;22959;-81
2023/03/21 00:23:06;;;;;;;;;;;;;;;;;;136700;1284;22706;-80
2023/03/21 00:26:09;;;;;;;;;;;;;;;;;;136724;1284;22271;-82
2023/03/21 00:29:11;;;;;;;;;;;;;;;;;;136706;1282;22912;-81
2023/03/21 00:32:14;;;;;;;;;;;;;;;;;;136607;1284;166238;-80
2023/03/21 00:35:16;;;;;;;;;;;;;;;;;;136693;1284;22264;-80
2023/03/21 00:38:19;;;;;;;;;;;;;;;;;;136715;1284;22259;-80
2023/03/21 00:41:21;;;;;;;;;;;;;;;;;;136720;1284;22875;-81
2023/03/21 00:44:25;;;;;;;;;;;;;;;;;;136719;1284;22266;-81
2023/03/21 00:47:28;;;;;;;;;;;;;;;;;;136714;1284;22182;-80
2023/03/21 00:50:31;;;;;;;;;;;;;;;;;;136696;1284;22366;-80
2023/03/21 00:53:33;;;;;;;;;;;;;;;;;;136721;1284;22242;-80
2023/03/21 00:56:36;;;;;;;;;;;;;;;;;;136653;1284;22387;-81
2023/03/21 00:59:38;;;;;;;;;;;;;;;;;;136719;1284;22641;-80
2023/03/21 01:02:54;;;;;;;;;;;;;;;;;;136687;1284;22741;-80
2023/03/21 01:06:04;;;;;;;;;;;;;;;;;;136681;1284;22449;-80
2023/03/21 01:09:06;;;;;;;;;;;;;;;;;;136686;1284;22335;-80
2023/03/21 01:12:09;;;;;;;;;;;;;;;;;;136683;1284;22264;-80
2023/03/21 01:15:12;;;;;;;;;;;;;;;;;;136691;1284;22628;-80
2023/03/21 01:18:14;;;;;;;;;;;;;;;;;;136671;1284;22247;-80
2023/03/21 01:21:17;;;;;;;;;;;;;;;;;;136680;1284;22349;-81
2023/03/21 01:24:19;;;;;;;;;;;;;;;;;;136719;1284;22671;-80
2023/03/21 01:27:22;;;;;;;;;;;;;;;;;;136703;1284;22333;-80
2023/03/21 01:30:24;;;;;;;;;;;;;;;;;;136715;1284;22272;-80
2023/03/21 01:33:27;;;;;;;;;;;;;;;;;;136713;1284;22259;-80
2023/03/21 01:36:29;;;;;;;;;;;;;;;;;;136737;1284;22266;-80
2023/03/21 01:39:33;;;;;;;;;;;;;;;;;;136702;1284;22248;-79
2023/03/21 01:42:36;;;;;;;;;;;;;;;;;;136715;1284;22333;-79
2023/03/21 01:45:38;;;;;;;;;;;;;;;;;;136738;1284;22270;-81
2023/03/21 01:48:40;;;;;;;;;;;;;;;;;;136720;1281;22197;-80
2023/03/21 01:51:43;;;;;;;;;;;;;;;;;;136732;1284;22381;-80
2023/03/21 01:54:45;;;;;;;;;;;;;;;;;;136714;1284;22642;-80
2023/03/21 01:57:48;;;;;;;;;;;;;;;;;;136718;1284;22351;-80
2023/03/21 02:00:50;;;;;;;;;;;;;;;;;;136723;1284;22301;-81
2023/03/21 02:03:53;;;;;;;;;;;;;;;;;;136701;1284;22263;-79
2023/03/21 02:06:55;;;;;;;;;;;;;;;;;;136699;1284;22255;-79
2023/03/21 02:09:57;;;;;;;;;;;;;;;;;;136721;1284;22189;-80
2023/03/21 02:13:08;;;;;;;;;;;;;;;;;;136714;1284;22189;-80
2023/03/21 02:16:10;;;;;;;;;;;;;;;;;;136720;1284;22185;-80
2023/03/21 02:19:13;;;;;;;;;;;;;;;;;;136691;1284;22253;-80
2023/03/21 02:22:15;;;;;;;;;;;;;;;;;;136686;1284;23177;-80
2023/03/21 02:25:17;;;;;;;;;;;;;;;;;;136719;1284;22172;-82
2023/03/21 02:28:20;;;;;;;;;;;;;;;;;;136703;1284;22295;-79
2023/03/21 02:31:22;;;;;;;;;;;;;;;;;;136708;1284;22440;-81
2023/03/21 02:34:25;;;;;;;;;;;;;;;;;;136682;1284;22261;-80
2023/03/21 02:37:27;;;;;;;;;;;;;;;;;;136695;1272;22185;-80
2023/03/21 02:40:30;;;;;;;;;;;;;;;;;;136678;1284;22365;-80
2023/03/21 02:43:34;;;;;;;;;;;;;;;;;;136698;1284;22290;-81
2023/03/21 02:46:36;;;;;;;;;;;;;;;;;;136724;1284;22241;-80
2023/03/21 02:49:40;;;;;;;;;;;;;;;;;;136712;1284;22886;-80
2023/03/21 02:52:43;;;;;;;;;;;;;;;;;;136729;1284;22301;-81
2023/03/21 02:55:45;;;;;;;;;;;;;;;;;;136704;1284;22251;-79
2023/03/21 02:58:48;;;;;;;;;;;;;;;;;;136735;1284;22342;-80
2023/03/21 03:01:50;;;;;;;;;;;;;;;;;;136756;1284;22324;-80
2023/03/21 03:04:54;;;;;;;;;;;;;;;;;;136702;1284;22299;-81
2023/03/21 03:07:56;;;;;;;;;;;;;;;;;;136733;1284;22323;-80
2023/03/21 03:10:59;;;;;;;;;;;;;;;;;;136718;1284;22247;-81
2023/03/21 03:14:02;;;;;;;;;;;;;;;;;;136733;1284;22725;-81
2023/03/21 03:17:05;;;;;;;;;;;;;;;;;;136710;1284;22861;-81
2023/03/21 03:20:09;;;;;;;;;;;;;;;;;;136710;1284;22373;-81
2023/03/21 03:23:11;;;;;;;;;;;;;;;;;;136728;1276;22274;-80
2023/03/21 03:26:14;;;;;;;;;;;;;;;;;;136732;1284;22731;-80
2023/03/21 03:29:16;;;;;;;;;;;;;;;;;;136733;1270;22193;-81
2023/03/21 03:32:19;;;;;;;;;;;;;;;;;;136706;1284;22331;-81
2023/03/21 03:35:22;;;;;;;;;;;;;;;;;;136745;1284;22291;-82
2023/03/21 03:38:24;;;;;;;;;;;;;;;;;;136713;1284;22783;-81
2023/03/21 03:41:27;;;;;;;;;;;;;;;;;;136699;1284;22447;-81
2023/03/21 03:44:29;;;;;;;;;;;;;;;;;;136735;1284;22689;-80
2023/03/21 03:47:32;;;;;;;;;;;;;;;;;;136741;1284;22259;-80
2023/03/21 03:50:34;;;;;;;;;;;;;;;;;;136746;1284;22409;-82
2023/03/21 03:53:37;;;;;;;;;;;;;;;;;;136713;1284;22311;-81
2023/03/21 03:56:39;;;;;;;;;;;;;;;;;;136713;1284;22278;-80
2023/03/21 03:59:44;;;;;;;;;;;;;;;;;;136737;1284;22258;-80
2023/03/21 04:02:47;;;;;;;;;;;;;;;;;;136734;1284;22285;-79
2023/03/21 04:05:49;;;;;;;;;;;;;;;;;;136727;1284;22331;-80
2023/03/21 04:08:51;;;;;;;;;;;;;;;;;;136726;1284;22281;-81
2023/03/21 04:11:54;;;;;;;;;;;;;;;;;;136709;1284;22262;-81
2023/03/21 04:14:56;;;;;;;;;;;;;;;;;;136707;1284;22172;-81
2023/03/21 04:17:59;;;;;;;;;;;;;;;;;;136728;1284;22189;-80
2023/03/21 04:21:02;;;;;;;;;;;;;;;;;;136711;1284;22395;-81
2023/03/21 04:24:06;;;;;;;;;;;;;;;;;;136711;1284;22258;-80
2023/03/21 04:27:08;;;;;;;;;;;;;;;;;;136720;1284;22720;-80
2023/03/21 04:30:11;;;;;;;;;;;;;;;;;;136716;1284;22262;-80
2023/03/21 04:33:13;;;;;;;;;;;;;;;;;;136705;1270;22162;-80
2023/03/21 04:36:25;;;;;;;;;;;;;;;;;;136713;1284;22863;-81
2023/03/21 04:39:27;;;;;;;;;;;;;;;;;;136721;1284;22314;-80
2023/03/21 04:42:30;;;;;;;;;;;;;;;;;;136728;1284;22383;-81
2023/03/21 04:45:32;;;;;;;;;;;;;;;;;;136717;1284;22426;-80
2023/03/21 04:48:35;;;;;;;;;;;;;;;;;;136686;1284;22749;-81
2023/03/21 04:51:37;;;;;;;;;;;;;;;;;;136706;1284;22341;-80
2023/03/21 04:54:40;;;;;;;;;;;;;;;;;;136717;1284;22296;-81
2023/03/21 04:57:42;;;;;;;;;;;;;;;;;;136684;1284;22844;-79
2023/03/21 05:00:45;;;;;;;;;;;;;;;;;;136661;1284;22257;-77
2023/03/21 05:03:47;;;;;;;;;;;;;;;;;;136590;1284;22701;-80
2023/03/21 05:06:49;;;;;;;;;;;;;;;;;;136679;1284;22765;-80
2023/03/21 05:09:52;;;;;;;;;;;;;;;;;;136640;1284;22762;-80
2023/03/21 05:12:54;;;;;;;;;;;;;;;;;;136632;1284;22649;-81
2023/03/21 05:15:57;;;;;;;;;;;;;;;;;;136655;1284;22260;-81
2023/03/21 05:19:02;;;;;;;;;;;;;;;;;;136685;1284;22305;-80
2023/03/21 05:22:05;;;;;;;;;;;;;;;;;;136668;1284;22413;-80
2023/03/21 05:25:07;;;;;;;;;;;;;;;;;;136642;1284;22565;-80
2023/03/21 05:28:10;;;;;;;;;;;;;;;;;;136673;1284;22190;-81
2023/03/21 05:31:15;;;;;;;;;;;;;;;;;;136686;1284;22285;-81
2023/03/21 05:34:17;;;;;;;;;;;;;;;;;;136683;1284;22271;-80
2023/03/21 05:37:20;;;;;;;;;;;;;;;;;;136677;1284;22269;-81
2023/03/21 05:40:22;;;;;;;;;;;;;;;;;;136703;1284;22398;-81
2023/03/21 05:43:25;;;;;;;;;;;;;;;;;;136659;1284;22281;-81
2023/03/21 05:46:27;;;;;;;;;;;;;;;;;;136680;1284;22318;-82
2023/03/21 05:49:30;;;;;;;;;;;;;;;;;;136696;1284;22954;-81
2023/03/21 05:52:33;;;;;;;;;;;;;;;;;;136654;1284;22293;-81
2023/03/21 05:55:35;;;;;;;;;;;;;;;;;;136643;1284;22173;-80
2023/03/21 05:58:37;;;;;;;;;;;;;;;;;;136614;1284;22247;-80
2023/03/21 06:01:40;;;;;;;;;;;;;;;;;;136640;1284;22263;-80
2023/03/21 06:04:43;;;;;;;;;;;;;;;;;;136658;1284;22324;-79
2023/03/21 06:07:46;;;;;;;;;;;;;;;;;;136668;1284;22242;-80
2023/03/21 06:10:48;;;;;;;;;;;;;;;;;;136640;1284;22306;-78
2023/03/21 06:13:50;;;;;;;;;;;;;;;;;;136633;1281;22180;-81
2023/03/21 06:16:53;;;;;;;;;;;;;;;;;;136623;1284;22246;-81
2023/03/21 06:19:56;;;;;;;;;;;;;;;;;;136646;1284;22384;-80
2023/03/21 06:22:58;;;;;;;;;;;;;;;;;;136659;1284;22282;-80
2023/03/21 06:26:01;;;;;;;;;;;;;;;;;;136645;1284;22340;-79
2023/03/21 06:29:03;;;;;;;;;;;;;;;;;;136639;1284;22739;-80
2023/03/21 06:32:06;;;;;;;;;;;;;;;;;;136645;1284;22668;-78
2023/03/21 06:35:08;;;;;;;;;;;;;;;;;;136653;1284;22254;-77
2023/03/21 06:38:11;;;;;;;;;;;;;;;;;;136683;1284;22244;-78
2023/03/21 06:41:13;;;;;;;;;;;;;;;;;;136636;1284;22391;-78
2023/03/21 06:44:16;;;;;;;;;;;;;;;;;;136653;1284;22284;-77
2023/03/21 06:47:18;;;;;;;;;;;;;;;;;;136672;1284;22307;-79
2023/03/21 06:50:21;;;;;;;;;;;;;;;;;;136658;1284;22358;-77
2023/03/21 06:53:26;;;;;;;;;;;;;;;;;;136656;1284;23061;-77
2023/03/21 06:56:28;;;;;;;;;;;;;;;;;;136618;1284;22407;-79
2023/03/21 06:59:31;;;;;;;;;;;;;;;;;;136642;1284;22670;-78
2023/03/21 07:02:33;;;;;;;;;;;;;;;;;;136611;1284;22258;-78
2023/03/21 07:05:35;;;;;;;;;;;;;;;;;;136632;1284;22361;-78
2023/03/21 07:08:38;;;;;;;;;;;;;;;;;;136635;1284;22276;-79
2023/03/21 07:11:40;;;;;;;;;;;;;;;;;;136655;1280;22191;-77
2023/03/21 07:14:43;;;;;;;;;;;;;;;;;;136607;1284;22296;-77
2023/03/21 07:17:45;;;;;;;;;;;;;;;;;;136676;1284;22897;-77
2023/03/21 07:20:49;;;;;;;;;;;;;;;;;;136649;1284;22368;-76
2023/03/21 07:23:52;;;;;;;;;;;;;;;;;;136643;1284;22277;-76
2023/03/21 07:26:55;;;;;;;;;;;;;;;;;;136671;1284;22245;-77
2023/03/21 07:29:57;;;;;;;;;;;;;;;;;;136651;1284;22206;-77
2023/03/21 07:32:59;;;;;;;;;;;;;;;;;;136636;1284;22280;-78
2023/03/21 07:36:02;;;;;;;;;;;;;;;;;;136657;1284;22729;-79
2023/03/21 07:39:05;;;;;;;;;;;;;;;;;;136587;1284;22271;-78
2023/03/21 07:42:07;;;;;;;;;;;;;;;;;;136637;1284;22371;-79
2023/03/21 07:45:10;;;;;;;;;;;;;;;;;;136594;1284;22264;-79
2023/03/21 07:48:12;;;;;;;;;;;;;;;;;;136640;1284;22200;-78
2023/03/21 07:51:15;;;;;;;;;;;;;;;;;;136608;1284;22856;-80
2023/03/21 07:54:20;;;;;;;;;;;;;;;;;;136634;1276;22285;-79
2023/03/21 07:57:23;;;;;;;;;;;;;;;;;;136650;1284;22173;-79
2023/03/21 08:00:25;;;;;;;;;;;;;;;;;;136642;1284;22793;-78
2023/03/21 08:03:28;;;;;;;;;;;;;;;;;;136678;1276;22359;-78
2023/03/21 08:06:31;;;;;;;;;;;;;;;;;;136642;1284;22433;-79
2023/03/21 08:09:33;;;;;;;;;;;;;;;;;;136675;1284;22393;-80
2023/03/21 08:12:36;;;;;;;;;;;;;;;;;;136669;1284;22186;-78
2023/03/21 08:15:41;;;;;;;;;;;;;;;;;;136698;1284;22284;-78
2023/03/21 08:18:43;;;;;;;;;;;;;;;;;;136650;1284;22246;-77
2023/03/21 08:21:45;;;;;;;;;;;;;;;;;;136654;1284;22323;-78
2023/03/21 08:24:48;;;;;;;;;;;;;;;;;;136680;1284;22401;-78
2023/03/21 08:27:51;;;;;;;;;;;;;;;;;;136672;1284;22265;-78
2023/03/21 08:30:53;;;;;;;;;;;;;;;;;;136645;1284;22239;-78
2023/03/21 08:33:56;;;;;;;;;;;;;;;;;;136681;1284;22182;-78
2023/03/21 08:36:58;;;;;;;;;;;;;;;;;;136678;1284;22435;-77
2023/03/21 08:40:01;;;;;;;;;;;;;;;;;;136690;1284;22394;-77
2023/03/21 08:43:03;;;;;;;;;;;;;;;;;;136665;1284;22467;-77
2023/03/21 08:46:06;;;;;;;;;;;;;;;;;;136687;1284;22185;-78
2023/03/21 08:49:08;;;;;;;;;;;;;;;;;;136674;1284;22292;-77
2023/03/21 08:52:11;;;;;;;;;;;;;;;;;;136676;1284;22360;-77
2023/03/21 08:55:14;;;;;;;;;;;;;;;;;;136662;1284;22317;-78
2023/03/21 08:58:17;;;;;;;;;;;;;;;;;;136633;1284;22357;-77
2023/03/21 09:01:19;;;;;;;;;;;;;;;;;;136635;1284;22261;-78
2023/03/21 09:04:24;;;;;;;;;;;;;;;;;;136653;1284;22178;-77
2023/03/21 09:07:27;;;;;;;;;;;;;;;;;;136656;1284;22789;-78
2023/03/21 09:10:29;;;;;;;;;;;;;;;;;;136652;1284;22703;-78
2023/03/21 09:13:32;;;;;;;;;;;;;;;;;;136674;1284;22267;-78
2023/03/21 09:16:34;;;;;;;;;;;;;;;;;;136653;1284;22268;-79
2023/03/21 09:19:37;;;;;;;;;;;;;;;;;;136629;1284;22380;-78
2023/03/21 09:22:40;;;;;;;;;;;;;;;;;;136600;1284;22267;-77
2023/03/21 09:25:42;;;;;;;;;;;;;;;;;;136593;1284;22300;-77
2023/03/21 09:28:47;;;;;;;;;;;;;;;;;;136621;1284;22178;-78
2023/03/21 09:31:52;;;;;;;;;;;;;;;;;;136636;1284;23098;-78
2023/03/21 09:34:56;;;;;;;;;;;;;;;;;;136612;1284;22336;-77
2023/03/21 09:37:59;;;;;;;;;;;;;;;;;;136616;1284;22252;-79
2023/03/21 09:41:02;;;;;;;;;;;;;;;;;;136628;1284;22766;-78
2023/03/21 09:44:05;;;;;;;;;;;;;;;;;;136618;1284;22264;-76
2023/03/21 09:47:08;;;;;;;;;;;;;;;;;;136617;1284;22807;-77
2023/03/21 09:50:10;;;;;;;;;;;;;;;;;;136638;1277;22391;-78
2023/03/21 09:53:14;;;;;;;;;;;;;;;;;;136638;1284;23037;-77
2023/03/21 09:56:16;;;;;;;;;;;;;;;;;;136643;1284;22321;-78
2023/03/21 09:59:19;;;;;;;;;;;;;;;;;;136637;1284;22299;-77
2023/03/21 10:02:30;;;;;;;;;;;;;;;;;;136622;1284;22225;-77
2023/03/21 10:05:33;;;;;;;;;;;;;;;;;;136665;1284;22278;-76
2023/03/21 10:08:36;;;;;;;;;;;;;;;;;;136611;1284;22786;-76
2023/03/21 10:11:38;;;;;;;;;;;;;;;;;;136624;1284;22254;-76
2023/03/21 10:14:41;;;;;;;;;;;;;;;;;;136655;1284;22214;-77
2023/03/21 10:17:43;;;;;;;;;;;;;;;;;;136661;1284;22597;-78
2023/03/21 10:20:45;;;;;;;;;;;;;;;;;;136618;1284;22376;-78
2023/03/21 10:23:50;;;;;;;;;;;;;;;;;;136615;1284;22153;-78
2023/03/21 10:26:55;;;;;;;;;;;;;;;;;;136634;1277;22202;-77
2023/03/21 10:29:59;;;;;;;;;;;;;;;;;;136623;1284;22243;-78
2023/03/21 10:33:03;;;;;;;;;;;;;;;;;;136628;1284;22169;-76
2023/03/21 10:36:06;;;;;;;;;;;;;;;;;;136633;1284;22262;-77
2023/03/21 10:39:10;;;;;;;;;;;;;;;;;;136607;1284;22770;-78
2023/03/21 10:42:13;;;;;;;;;;;;;;;;;;136652;1284;22379;-76
2023/03/21 10:45:15;;;;;;;;;;;;;;;;;;136614;1284;22985;-78
2023/03/21 10:48:18;;;;;;;;;;;;;;;;;;136643;1284;22257;-79
2023/03/21 10:51:20;;;;;;;;;;;;;;;;;;136635;1284;22918;-77
2023/03/21 10:54:23;;;;;;;;;;;;;;;;;;136638;1284;22725;-79
2023/03/21 10:57:25;;;;;;;;;;;;;;;;;;136641;1284;22173;-77
2023/03/21 11:00:28;;;;;;;;;;;;;;;;;;136621;1278;22281;-79
2023/03/21 11:03:31;;;;;;;;;;;;;;;;;;136632;1284;22272;-79
2023/03/21 11:06:33;;;;;;;;;;;;;;;;;;136612;1284;22328;-78
2023/03/21 11:09:35;;;;;;;;;;;;;;;;;;136615;1284;22271;-79
2023/03/21 11:12:38;;;;;;;;;;;;;;;;;;136635;1284;22715;-78
2023/03/21 11:15:41;;;;;;;;;;;;;;;;;;136650;1284;22289;-78
2023/03/21 11:18:43;;;;;;;;;;;;;;;;;;136648;1284;22209;-78
2023/03/21 11:21:45;;;;;;;;;;;;;;;;;;136637;1284;22526;-78
2023/03/21 11:24:48;;;;;;;;;;;;;;;;;;136674;1284;22283;-79
2023/03/21 11:27:50;;;;;;;;;;;;;;;;;;136620;1284;22241;-78
2023/03/21 11:30:53;;;;;;;;;;;;;;;;;;136683;1284;22178;-83
2023/03/21 11:33:56;;;;;;;;;;;;;;;;;;136661;1284;22289;-79
2023/03/21 11:37:00;;;;;;;;;;;;;;;;;;136660;1284;22255;-79
2023/03/21 11:40:03;;;;;;;;;;;;;;;;;;136631;1284;22452;-81
2023/03/21 11:43:05;;;;;;;;;;;;;;;;;;136626;1284;22305;-78
2023/03/21 11:46:08;;;;;;;;;;;;;;;;;;136625;1284;22221;-78
2023/03/21 11:49:10;;;;;;;;;;;;;;;;;;136621;1284;22145;-78
2023/03/21 11:52:13;;;;;;;;;;;;;;;;;;136629;1284;22355;-78
2023/03/21 11:55:15;;;;;;;;;;;;;;;;;;136597;1284;22221;-77
2023/03/21 11:58:18;;;;;;;;;;;;;;;;;;136612;1284;22257;-77
2023/03/21 12:01:20;;;;;;;;;;;;;;;;;;136613;1284;22283;-78
2023/03/21 12:04:23;;;;;;;;;;;;;;;;;;136668;1284;22222;-77
2023/03/21 12:07:26;;;;;;;;;;;;;;;;;;136692;1284;22296;-78
2023/03/21 12:10:28;;;;;;;;;;;;;;;;;;136676;1284;22245;-77
2023/03/21 12:13:31;;;;;;;;;;;;;;;;;;136693;1284;22188;-78
2023/03/21 12:16:33;;;;;;;;;;;;;;;;;;136720;1284;22182;-78
2023/03/21 12:19:36;;;;;;;;;;;;;;;;;;136703;1284;22416;-76
2023/03/21 12:22:38;;;;;;;;;;;;;;;;;;136692;1284;22271;-79
2023/03/21 12:25:43;;;;;;;;;;;;;;;;;;136609;1284;22294;-77
2023/03/21 12:28:45;;;;;;;;;;;;;;;;;;136616;1284;22208;-78
2023/03/21 12:31:48;;;;;;;;;;;;;;;;;;136465;1284;162919;-77
2023/03/21 12:34:51;;;;;;;;;;;;;;;;;;136605;1284;22183;-78
2023/03/21 12:37:53;;;;;;;;;;;;;;;;;;136610;1284;22255;-78
2023/03/21 12:41:00;;;;;;;;;;;;;;;;;;136584;1284;22396;-78
2023/03/21 12:44:03;;;;;;;;;;;;;;;;;;136568;1284;22310;-78
2023/03/21 12:47:06;;;;;;;;;;;;;;;;;;136592;1284;22190;-78
2023/03/21 12:50:08;;;;;;;;;;;;;;;;;;136541;1279;22819;-78
2023/03/21 12:53:11;;;;;;;;;;;;;;;;;;136593;1284;22294;-78
2023/03/21 12:56:14;;;;;;;;;;;;;;;;;;136613;1284;22282;-79
2023/03/21 12:59:17;;;;;;;;;;;;;;;;;;136618;1284;22257;-78
2023/03/21 13:02:19;;;;;;;;;;;;;;;;;;136583;1284;22174;-79
2023/03/21 13:05:22;;;;;;;;;;;;;;;;;;136596;1284;22261;-78
2023/03/21 13:08:24;;;;;;;;;;;;;;;;;;136580;1279;22241;-81
2023/03/21 13:11:27;;;;;;;;;;;;;;;;;;136594;1276;22211;-81
2023/03/21 13:14:29;;;;;;;;;;;;;;;;;;136570;1284;22180;-82
2023/03/21 13:17:32;;;;;;;;;;;;;;;;;;136586;1284;22267;-81
2023/03/21 13:20:35;;;;;;;;;;;;;;;;;;136567;1284;22363;-81
2023/03/21 13:23:38;;;;;;;;;;;;;;;;;;136576;1284;22243;-80
2023/03/21 13:26:40;;;;;;;;;;;;;;;;;;136592;1284;22297;-81
2023/03/21 13:29:43;;;;;;;;;;;;;;;;;;136588;1284;22193;-80
2023/03/21 13:32:45;;;;;;;;;;;;;;;;;;136576;1284;22308;-82
2023/03/21 13:35:48;;;;;;;;;;;;;;;;;;136587;1284;22271;-82
2023/03/21 13:38:50;;;;;;;;;;;;;;;;;;136601;1284;22273;-81
2023/03/21 13:41:53;;;;;;;;;;;;;;;;;;136594;1284;22395;-80
2023/03/21 13:44:56;;;;;;;;;;;;;;;;;;136632;1284;22268;-81
2023/03/21 13:47:58;;;;;;;;;;;;;;;;;;136601;1284;22332;-81
2023/03/21 13:51:01;;;;;;;;;;;;;;;;;;136608;1284;22392;-80
2023/03/21 13:54:03;;;;;;;;;;;;;;;;;;136628;1284;22400;-80
2023/03/21 13:57:05;;;;;;;;;;;;;;;;;;136593;1284;22301;-81
2023/03/21 14:00:08;;;;;;;;;;;;;;;;;;136637;1284;22291;-82
2023/03/21 14:03:11;;;;;;;;;;;;;;;;;;136629;1284;22610;-83
2023/03/21 14:06:13;;;;;;;;;;;;;;;;;;136629;1279;22268;-79
2023/03/21 14:09:16;;;;;;;;;;;;;;;;;;136613;1284;22235;-81
2023/03/21 14:12:21;;;;;;;;;;;;;;;;;;136612;1271;22226;-81
2023/03/21 14:15:23;;;;;;;;;;;;;;;;;;136613;1284;22687;-80
2023/03/21 14:18:25;;;;;;;;;;;;;;;;;;136590;1284;22303;-80
2023/03/21 14:21:28;;;;;;;;;;;;;;;;;;136607;1284;22892;-81
2023/03/21 14:24:30;;;;;;;;;;;;;;;;;;136593;1284;22172;-80
2023/03/21 14:27:33;;;;;;;;;;;;;;;;;;136590;1284;22708;-80
2023/03/21 14:30:35;;;;;;;;;;;;;;;;;;136591;1284;22226;-81
2023/03/21 14:33:39;;;;;;;;;;;;;;;;;;136584;1284;22290;-81
2023/03/21 14:36:41;;;;;;;;;;;;;;;;;;136567;1284;22355;-79
2023/03/21 14:39:44;;;;;;;;;;;;;;;;;;136604;1284;23360;-78
2023/03/21 14:42:46;;;;;;;;;;;;;;;;;;136642;1284;22274;-79
2023/03/21 14:45:49;;;;;;;;;;;;;;;;;;136593;1284;22334;-80
2023/03/21 14:48:51;;;;;;;;;;;;;;;;;;136632;1284;22248;-80
2023/03/21 14:51:53;;;;;;;;;;;;;;;;;;136611;1284;22384;-80
2023/03/21 14:54:56;;;;;;;;;;;;;;;;;;136629;1284;22178;-80
2023/03/21 14:57:58;;;;;;;;;;;;;;;;;;136607;1284;22300;-80
2023/03/21 15:01:01;;;;;;;;;;;;;;;;;;136602;1284;23056;-80
2023/03/21 15:04:03;;;;;;;;;;;;;;;;;;136632;1284;22245;-80
2023/03/21 15:07:07;;;;;;;;;;;;;;;;;;136638;1284;22252;-80
2023/03/21 15:10:09;;;;;;;;;;;;;;;;;;136651;1285;22288;-79
2023/03/21 15:13:12;;;;;;;;;;;;;;;;;;136666;1284;22265;-79
2023/03/21 15:16:14;;;;;;;;;;;;;;;;;;136664;1284;22694;-79
2023/03/21 15:19:17;;;;;;;;;;;;;;;;;;136654;1284;22268;-80
2023/03/21 15:22:19;;;;;;;;;;;;;;;;;;136670;1284;22377;-79
2023/03/21 15:25:22;;;;;;;;;;;;;;;;;;136627;1284;22250;-79
2023/03/21 15:28:26;;;;;;;;;;;;;;;;;;136638;1284;22261;-79
2023/03/21 15:31:29;;;;;;;;;;;;;;;;;;136621;1284;22286;-80
2023/03/21 15:34:31;;;;;;;;;;;;;;;;;;136603;1284;22657;-79
2023/03/21 15:37:34;;;;;;;;;;;;;;;;;;136620;1284;22926;-79
2023/03/21 15:40:36;;;;;;;;;;;;;;;;;;136646;1284;22380;-81
2023/03/21 15:43:39;;;;;;;;;;;;;;;;;;136653;1284;22205;-79
2023/03/21 15:46:41;;;;;;;;;;;;;;;;;;136685;1284;22774;-79
2023/03/21 15:49:44;;;;;;;;;;;;;;;;;;136697;1282;22452;-80
2023/03/21 15:52:46;;;;;;;;;;;;;;;;;;136662;1284;22378;-79
2023/03/21 15:55:50;;;;;;;;;;;;;;;;;;136632;1284;22266;-79
2023/03/21 15:58:53;;;;;;;;;;;;;;;;;;136621;1284;22271;-79
2023/03/21 16:01:55;;;;;;;;;;;;;;;;;;136623;1284;22205;-80
2023/03/21 16:04:58;;;;;;;;;;;;;;;;;;136625;1284;22273;-79
2023/03/21 16:08:00;;;;;;;;;;;;;;;;;;136639;1284;23082;-80
2023/03/21 16:11:02;;;;;;;;;;;;;;;;;;136635;1284;22255;-80
2023/03/21 16:14:05;;;;;;;;;;;;;;;;;;136625;1284;22239;-79
2023/03/21 16:17:07;;;;;;;;;;;;;;;;;;136649;1284;22258;-79
2023/03/21 16:20:10;;;;;;;;;;;;;;;;;;136651;1283;22419;-78
2023/03/21 16:23:12;;;;;;;;;;;;;;;;;;136640;1284;22262;-80
2023/03/21 16:26:15;;;;;;;;;;;;;;;;;;136646;1284;22701;-79
2023/03/21 16:29:17;;;;;;;;;;;;;;;;;;136634;1284;22781;-80
2023/03/21 16:32:20;;;;;;;;;;;;;;;;;;136617;1284;22259;-79
2023/03/21 16:35:24;;;;;;;;;;;;;;;;;;136668;1284;22291;-80
2023/03/21 16:38:27;;;;;;;;;;;;;;;;;;136662;1285;22211;-80
2023/03/21 16:41:29;;;;;;;;;;;;;;;;;;136671;1284;22373;-80
2023/03/21 16:44:32;;;;;;;;;;;;;;;;;;136652;1284;22345;-79
2023/03/21 16:47:35;;;;;;;;;;;;;;;;;;136666;1284;22354;-80
2023/03/21 16:50:38;;;;;;;;;;;;;;;;;;136672;1284;22376;-80
2023/03/21 16:53:40;;;;;;;;;;;;;;;;;;136664;1284;22450;-80
2023/03/21 16:56:42;;;;;;;;;;;;;;;;;;136667;1284;22737;-80
2023/03/21 16:59:45;;;;;;;;;;;;;;;;;;136687;1284;22655;-79
2023/03/21 17:02:47;;;;;;;;;;;;;;;;;;136689;1284;22745;-79
2023/03/21 17:05:50;;;;;;;;;;;;;;;;;;136703;1284;22176;-79
2023/03/21 17:08:52;;;;;;;;;;;;;;;;;;136681;1284;22264;-79
2023/03/21 17:11:55;;;;;;;;;;;;;;;;;;136668;1284;22265;-80
2023/03/21 17:14:57;;;;;;;;;;;;;;;;;;136654;1284;22338;-80
2023/03/21 17:17:59;;;;;;;;;;;;;;;;;;136669;1284;22220;-79
2023/03/21 17:21:02;;;;;;;;;;;;;;;;;;136667;1284;22433;-79
2023/03/21 17:24:05;;;;;;;;;;;;;;;;;;136658;1284;22256;-80
2023/03/21 17:27:07;;;;;;;;;;;;;;;;;;136669;1284;22170;-79
2023/03/21 17:30:10;;;;;;;;;;;;;;;;;;136675;1284;22254;-80
2023/03/21 17:33:14;;;;;;;;;;;;;;;;;;136654;1284;23097;-80
2023/03/21 17:36:18;;;;;;;;;;;;;;;;;;136697;1284;22279;-80
2023/03/21 17:39:21;;;;;;;;;;;;;;;;;;136682;1284;22346;-79
2023/03/21 17:42:24;;;;;;;;;;;;;;;;;;136687;1284;22367;-80
2023/03/21 17:45:26;;;;;;;;;;;;;;;;;;136676;1284;22253;-79
2023/03/21 17:48:29;;;;;;;;;;;;;;;;;;136717;1284;22996;-79
2023/03/21 17:51:32;;;;;;;;;;;;;;;;;;136684;1284;22378;-81
2023/03/21 17:54:34;;;;;;;;;;;;;;;;;;136681;1284;22248;-78
2023/03/21 17:57:37;;;;;;;;;;;;;;;;;;136712;1284;22408;-81
2023/03/21 18:00:40;;;;;;;;;;;;;;;;;;136693;1284;22276;-81
2023/03/21 18:03:42;;;;;;;;;;;;;;;;;;136683;1284;22409;-81
2023/03/21 18:06:44;;;;;;;;;;;;;;;;;;136702;1284;22247;-80
2023/03/21 18:09:48;;;;;;;;;;;;;;;;;;136673;1284;22168;-80
2023/03/21 18:12:54;;;;;;;;;;;;;;;;;;136680;1284;22351;-80
2023/03/21 18:15:57;;;;;;;;;;;;;;;;;;136679;1284;22285;-82
2023/03/21 18:18:59;;;;;;;;;;;;;;;;;;136691;1284;22640;-82
2023/03/21 18:22:02;;;;;;;;;;;;;;;;;;136700;1282;22376;-81
2023/03/21 18:25:06;;;;;;;;;;;;;;;;;;136717;1284;22269;-82
2023/03/21 18:28:09;;;;;;;;;;;;;;;;;;136700;1284;22353;-81
2023/03/21 18:31:11;;;;;;;;;;;;;;;;;;136676;1284;22215;-81
2023/03/21 18:34:14;;;;;;;;;;;;;;;;;;136716;1284;22188;-80
2023/03/21 18:37:17;;;;;;;;;;;;;;;;;;136714;1284;22205;-79
2023/03/21 18:40:22;;;;;;;;;;;;;;;;;;136690;1284;22836;-82
2023/03/21 18:43:25;;;;;;;;;;;;;;;;;;136687;1284;22248;-79
2023/03/21 18:46:29;;;;;;;;;;;;;;;;;;136656;1284;22178;-79
2023/03/21 18:49:31;;;;;;;;;;;;;;;;;;136656;1284;22449;-79
2023/03/21 18:52:34;;;;;;;;;;;;;;;;;;136709;1284;22328;-80
2023/03/21 18:55:36;;;;;;;;;;;;;;;;;;136717;1284;22305;-79
2023/03/21 18:58:38;;;;;;;;;;;;;;;;;;136715;1284;22324;-81
2023/03/21 19:01:41;;;;;;;;;;;;;;;;;;136701;1284;22294;-81
2023/03/21 19:04:43;;;;;;;;;;;;;;;;;;136721;1280;22183;-81
2023/03/21 19:07:49;;;;;;;;;;;;;;;;;;136692;1284;22708;-82
2023/03/21 19:10:51;;;;;;;;;;;;;;;;;;136692;1284;22337;-81
2023/03/21 19:13:57;;;;;;;;;;;;;;;;;;136698;1284;22274;-82
2023/03/21 19:17:00;;;;;;;;;;;;;;;;;;136716;1284;22180;-82
2023/03/21 19:20:03;;;;;;;;;;;;;;;;;;136691;1284;22891;-81
2023/03/21 19:23:06;;;;;;;;;;;;;;;;;;136711;1284;22196;-81
2023/03/21 19:26:09;;;;;;;;;;;;;;;;;;136719;1284;22188;-82
2023/03/21 19:29:13;;;;;;;;;;;;;;;;;;136710;1284;22246;-81
2023/03/21 19:32:15;;;;;;;;;;;;;;;;;;136697;1284;22178;-81
2023/03/21 19:35:18;;;;;;;;;;;;;;;;;;136693;1284;22257;-80
2023/03/21 19:38:21;;;;;;;;;;;;;;;;;;136685;1284;22189;-80
2023/03/21 19:41:23;;;;;;;;;;;;;;;;;;136676;1284;22401;-80
2023/03/21 19:44:25;;;;;;;;;;;;;;;;;;136701;1284;22308;-80
2023/03/21 19:47:28;;;;;;;;;;;;;;;;;;136687;1284;22205;-83
2023/03/21 19:50:30;;;;;;;;;;;;;;;;;;136684;1284;22857;-80
2023/03/21 19:53:33;;;;;;;;;;;;;;;;;;136687;1284;22306;-80
2023/03/21 19:56:35;;;;;;;;;;;;;;;;;;136689;1284;22284;-80
2023/03/21 19:59:38;;;;;;;;;;;;;;;;;;136720;1284;22639;-83
2023/03/21 20:02:42;;;;;;;;;;;;;;;;;;136696;1284;22197;-79
2023/03/21 20:05:47;;;;;;;;;;;;;;;;;;136680;1284;22277;-83
2023/03/21 20:08:50;;;;;;;;;;;;;;;;;;136703;1284;22284;-83
2023/03/21 20:11:53;;;;;;;;;;;;;;;;;;136724;1284;22260;-82
2023/03/21 20:14:55;;;;;;;;;;;;;;;;;;136681;1284;22202;-82
2023/03/21 20:17:58;;;;;;;;;;;;;;;;;;136705;1284;22230;-83
2023/03/21 20:21:00;;;;;;;;;;;;;;;;;;136696;1284;22367;-82
2023/03/21 20:24:04;;;;;;;;;;;;;;;;;;136689;1284;22300;-82
2023/03/21 20:27:06;;;;;;;;;;;;;;;;;;136689;1284;22211;-81